Terminal Aerodrome Forecast
Issued by NWS Central Illinois

Home | Current Version | Previous Version | Text Only | Print | Product List | Glossary On
Versions: 1 2 3 4 5 6 7 8 9 10 11 12 13 14 15 16
000
FTUS43 KILX 172300 RRA
TAFSPI
TAF
KSPI 172341Z 1800/1824 VRB05KT P6SM BKN100
     FM180400 33005KT P6SM BKN080
     FM180800 32003KT P6SM BKN120
     FM181300 VRB05KT P6SM SKC=

USA.gov is the U.S. government's official web portal to all federal, state and local government web resources and services.